createdAt,value
2017-10-12T00:00:36.472Z,78.40
2017-10-12T00:03:03.099Z,78.50
2017-10-12T00:05:29.754Z,78.50
2017-10-12T00:07:56.374Z,78.50
2017-10-12T00:10:23.040Z,78.40
2017-10-12T00:12:49.679Z,78.50
2017-10-12T00:15:16.720Z,78.50
2017-10-12T00:17:43.373Z,78.50
2017-10-12T00:20:09.988Z,78.50
2017-10-12T00:25:27.643Z,78.50
2017-10-12T00:27:54.298Z,78.50
2017-10-12T00:30:20.935Z,78.50
2017-10-12T00:32:47.599Z,78.50
2017-10-12T00:35:14.622Z,78.40
2017-10-12T00:37:41.819Z,78.40
2017-10-12T00:40:08.500Z,78.60
2017-10-12T00:42:35.123Z,78.70
2017-10-12T00:45:01.771Z,78.70
2017-10-12T00:47:28.393Z,78.60
2017-10-12T00:49:55.043Z,78.60
2017-10-12T00:52:21.671Z,78.60
2017-10-12T00:54:48.319Z,78.70
2017-10-12T00:57:14.943Z,78.60
2017-10-12T00:59:41.599Z,78.80
2017-10-12T01:02:08.228Z,78.80
2017-10-12T01:04:34.864Z,78.80
2017-10-12T01:07:01.503Z,78.70
2017-10-12T01:09:28.125Z,78.70
2017-10-12T01:11:54.780Z,78.70
2017-10-12T01:14:21.398Z,78.80
2017-10-12T01:16:48.064Z,78.90
2017-10-12T01:19:14.675Z,78.90
2017-10-12T01:21:41.718Z,78.90
2017-10-12T01:24:08.750Z,78.90
2017-10-12T01:26:35.412Z,78.90
2017-10-12T01:29:02.999Z,78.90
2017-10-12T01:31:32.523Z,78.90
2017-10-12T01:33:59.171Z,78.90
2017-10-12T01:36:25.792Z,79.00
2017-10-12T01:38:52.439Z,79.00
2017-10-12T01:41:22.129Z,78.90
2017-10-12T01:43:48.781Z,78.90
2017-10-12T01:46:15.958Z,79.00
2017-10-12T01:48:42.599Z,79.00
2017-10-12T01:51:11.772Z,79.10
2017-10-12T01:53:38.447Z,79.10
2017-10-12T01:56:05.068Z,79.20
2017-10-12T01:58:31.689Z,79.00
2017-10-12T02:00:58.331Z,79.20
2017-10-12T02:03:24.961Z,79.20
2017-10-12T02:05:51.623Z,79.20
2017-10-12T02:08:18.244Z,79.20
2017-10-12T02:10:44.887Z,79.20
2017-10-12T02:13:11.508Z,79.30
2017-10-12T02:15:38.547Z,79.30
2017-10-12T02:18:05.565Z,79.70
2017-10-12T02:20:32.257Z,79.60
2017-10-12T02:22:58.893Z,79.40
2017-10-12T02:25:25.531Z,79.60
2017-10-12T02:27:52.225Z,79.50
2017-10-12T02:30:18.853Z,79.40
2017-10-12T02:32:45.503Z,79.50
2017-10-12T02:35:12.122Z,79.30
2017-10-12T02:37:38.768Z,79.30
2017-10-12T02:40:05.387Z,79.40
2017-10-12T02:42:32.047Z,79.30
2017-10-12T02:44:58.671Z,79.40
2017-10-12T02:47:25.290Z,79.40
2017-10-12T02:49:51.936Z,79.40
2017-10-12T02:52:18.559Z,79.50
2017-10-12T02:54:45.601Z,79.50
2017-10-12T02:57:12.224Z,79.50
2017-10-12T02:59:38.865Z,79.50
2017-10-12T03:02:05.487Z,79.50
2017-10-12T03:04:32.143Z,79.60
2017-10-12T03:06:58.767Z,79.60
2017-10-12T03:09:25.430Z,79.50
2017-10-12T03:11:52.062Z,79.60
2017-10-12T03:14:18.695Z,79.40
2017-10-12T03:16:45.347Z,79.60
2017-10-12T03:19:11.983Z,79.70
2017-10-12T03:21:38.622Z,79.60
2017-10-12T03:24:05.247Z,79.70
2017-10-12T03:26:31.936Z,79.90
2017-10-12T03:28:58.555Z,79.80
2017-10-12T03:31:25.200Z,79.70
2017-10-12T03:33:51.822Z,79.80
2017-10-12T03:36:18.759Z,79.80
2017-10-12T03:38:45.379Z,79.80
2017-10-12T03:41:12.024Z,79.80
2017-10-12T03:43:38.675Z,79.90
2017-10-12T03:46:05.299Z,79.80
2017-10-12T03:48:31.938Z,79.90
2017-10-12T03:50:58.560Z,79.90
2017-10-12T03:53:25.207Z,79.90
2017-10-12T03:55:51.827Z,80.00
2017-10-12T03:58:18.469Z,80.10
2017-10-12T04:00:45.096Z,80.10
2017-10-12T04:03:11.750Z,80.10
2017-10-12T04:05:38.403Z,80.10
2017-10-12T04:08:05.051Z,79.90
2017-10-12T04:10:31.690Z,79.90
2017-10-12T04:12:58.310Z,80.00
2017-10-12T04:15:24.947Z,79.90
2017-10-12T04:17:51.579Z,79.90
2017-10-12T04:20:18.227Z,79.90
2017-10-12T04:25:33.548Z,80.00
2017-10-12T04:28:00.188Z,80.00
2017-10-12T04:30:26.854Z,80.20
2017-10-12T04:32:53.484Z,80.40
2017-10-12T04:35:20.108Z,80.40
2017-10-12T04:37:46.755Z,80.60
2017-10-12T04:40:13.375Z,80.50
2017-10-12T04:42:40.024Z,80.50
2017-10-12T04:45:06.660Z,80.20
2017-10-12T04:47:33.328Z,80.20
2017-10-12T04:49:59.975Z,80.10
2017-10-12T04:52:26.619Z,79.80
2017-10-12T04:54:53.251Z,80.10
2017-10-12T04:57:19.920Z,79.70
2017-10-12T04:59:46.543Z,79.90
2017-10-12T05:02:13.168Z,79.40
2017-10-12T05:04:39.823Z,79.50
2017-10-12T05:07:06.451Z,79.60
2017-10-12T05:09:33.091Z,79.60
2017-10-12T05:11:59.735Z,79.10
2017-10-12T05:14:26.380Z,79.40
2017-10-12T05:16:53.003Z,79.10
2017-10-12T05:19:19.619Z,79.40
2017-10-12T05:21:46.259Z,78.90
2017-10-12T05:24:12.886Z,79.00
2017-10-12T05:26:39.548Z,78.90
2017-10-12T05:29:06.359Z,79.00
2017-10-12T05:31:32.978Z,79.10
2017-10-12T05:34:00.015Z,79.20
2017-10-12T05:36:26.642Z,79.20
2017-10-12T05:38:53.286Z,79.00
2017-10-12T05:41:19.917Z,78.90
2017-10-12T05:43:46.678Z,78.90
2017-10-12T05:46:13.298Z,78.80
2017-10-12T05:48:39.964Z,78.90
2017-10-12T05:51:07.004Z,78.70
2017-10-12T05:53:39.264Z,78.70
2017-10-12T05:56:05.907Z,78.80
2017-10-12T05:58:33.351Z,78.60
2017-10-12T06:01:00.010Z,78.60
2017-10-12T06:03:26.637Z,78.50
2017-10-12T06:05:53.288Z,78.70
2017-10-12T06:08:19.922Z,78.70
2017-10-12T06:10:46.576Z,78.60
2017-10-12T06:13:13.226Z,78.60
2017-10-12T06:15:39.867Z,78.60
2017-10-12T06:18:06.508Z,78.70
2017-10-12T06:20:34.959Z,78.70
2017-10-12T06:23:01.611Z,78.60
2017-10-12T06:25:28.242Z,78.70
2017-10-12T06:27:54.888Z,78.60
2017-10-12T06:30:21.534Z,78.60
2017-10-12T06:32:48.563Z,78.50
2017-10-12T06:35:15.247Z,78.50
2017-10-12T06:37:42.919Z,78.60
2017-10-12T06:40:09.571Z,78.50
2017-10-12T06:42:36.702Z,78.60
2017-10-12T06:45:03.344Z,78.70
2017-10-12T06:47:29.963Z,78.60
2017-10-12T06:49:57.019Z,78.60
2017-10-12T06:52:24.450Z,78.60
2017-10-12T06:54:51.111Z,78.50
2017-10-12T06:57:17.765Z,78.50
2017-10-12T06:59:44.784Z,78.30
2017-10-12T07:02:11.435Z,78.30
2017-10-12T07:04:38.209Z,78.50
2017-10-12T07:07:04.856Z,78.50
2017-10-12T07:09:31.476Z,78.50
2017-10-12T07:11:58.497Z,78.40
2017-10-12T07:14:25.143Z,78.40
2017-10-12T07:16:51.774Z,78.50
2017-10-12T07:19:18.439Z,78.40
2017-10-12T07:21:45.471Z,78.50
2017-10-12T07:24:12.112Z,78.50
2017-10-12T07:26:39.595Z,78.40
2017-10-12T07:29:07.438Z,78.40
2017-10-12T07:31:34.075Z,78.40
2017-10-12T07:34:00.748Z,78.40
2017-10-12T07:36:27.801Z,78.40
2017-10-12T07:38:54.423Z,78.40
2017-10-12T07:41:21.467Z,78.40
2017-10-12T07:43:48.090Z,78.40
2017-10-12T07:46:14.719Z,78.40
2017-10-12T07:48:41.379Z,78.40
2017-10-12T07:51:08.021Z,78.40
2017-10-12T07:53:34.667Z,78.40
2017-10-12T07:56:01.291Z,78.40
2017-10-12T07:58:27.989Z,78.40
2017-10-12T08:00:54.666Z,78.40
2017-10-12T08:03:21.630Z,78.40
2017-10-12T08:05:48.259Z,78.40
2017-10-12T08:08:14.920Z,78.40
2017-10-12T08:10:41.543Z,78.40
2017-10-12T08:13:08.177Z,78.40
2017-10-12T08:15:34.823Z,78.40
2017-10-12T08:18:01.443Z,78.40
2017-10-12T08:20:28.182Z,78.40
2017-10-12T08:22:54.839Z,78.40
2017-10-12T08:25:21.489Z,78.40
2017-10-12T08:27:48.111Z,78.40
2017-10-12T08:30:14.764Z,78.40
2017-10-12T08:32:41.400Z,78.40
2017-10-12T08:35:08.056Z,78.40
2017-10-12T08:37:35.087Z,78.40
2017-10-12T08:40:01.715Z,78.40
2017-10-12T08:42:28.355Z,78.30
2017-10-12T08:44:54.971Z,78.40
2017-10-12T08:47:21.616Z,78.30
2017-10-12T08:49:48.244Z,78.40
2017-10-12T08:52:14.942Z,78.40
2017-10-12T08:54:41.991Z,78.30
2017-10-12T08:57:09.059Z,78.30
2017-10-12T08:59:35.706Z,78.30
2017-10-12T09:02:02.382Z,78.30
2017-10-12T09:04:29.034Z,78.30
2017-10-12T09:06:55.673Z,78.30
2017-10-12T09:09:22.337Z,78.30
2017-10-12T09:11:48.981Z,78.30
2017-10-12T09:14:16.639Z,78.30
2017-10-12T09:16:43.279Z,78.30
2017-10-12T09:19:10.356Z,78.30
2017-10-12T09:21:37.006Z,78.30
2017-10-12T09:24:03.678Z,78.30
2017-10-12T09:26:30.318Z,78.30
2017-10-12T09:28:58.003Z,78.20
2017-10-12T09:31:24.645Z,78.30
2017-10-12T09:33:51.289Z,78.30
2017-10-12T09:36:17.954Z,78.30
2017-10-12T09:38:45.015Z,78.20
2017-10-12T09:41:11.677Z,78.20
2017-10-12T09:43:38.361Z,78.30
2017-10-12T09:46:05.025Z,78.20
2017-10-12T09:48:31.674Z,78.20
2017-10-12T09:50:58.334Z,78.20
2017-10-12T09:56:09.106Z,78.20
2017-10-12T09:58:35.779Z,78.20
2017-10-12T10:01:02.422Z,78.30
2017-10-12T10:03:29.102Z,78.20
2017-10-12T10:05:56.147Z,78.20
2017-10-12T10:08:22.816Z,78.20
2017-10-12T10:10:49.462Z,78.20
2017-10-12T10:13:16.147Z,77.90
2017-10-12T10:15:42.785Z,77.90
2017-10-12T10:18:09.455Z,78.10
2017-10-12T10:20:36.495Z,78.10
2017-10-12T10:25:51.531Z,78.00
2017-10-12T10:28:18.170Z,78.00
2017-10-12T10:30:44.838Z,77.50
2017-10-12T10:33:11.488Z,77.70
2017-10-12T10:35:38.158Z,77.60
2017-10-12T10:38:05.243Z,77.70
2017-10-12T10:40:31.938Z,77.70
2017-10-12T10:42:58.577Z,77.70
2017-10-12T10:45:25.214Z,77.70
2017-10-12T10:47:51.898Z,77.50
2017-10-12T10:50:18.529Z,77.60
2017-10-12T10:55:34.198Z,77.60
2017-10-12T10:58:00.874Z,77.70
2017-10-12T11:00:27.516Z,77.70
2017-10-12T11:02:54.189Z,77.60
2017-10-12T11:05:20.823Z,77.60
2017-10-12T11:07:47.458Z,77.00
2017-10-12T11:10:14.158Z,76.70
2017-10-12T11:12:41.194Z,76.80
2017-10-12T11:15:07.862Z,76.80
2017-10-12T11:17:34.498Z,77.20
2017-10-12T11:20:01.557Z,77.30
2017-10-12T11:22:28.200Z,77.40
2017-10-12T11:24:54.875Z,77.30
2017-10-12T11:27:21.518Z,77.20
2017-10-12T11:29:48.202Z,77.00
2017-10-12T11:32:14.849Z,77.00
2017-10-12T11:34:41.494Z,77.00
2017-10-12T11:37:08.174Z,77.00
2017-10-12T11:39:34.826Z,76.70
2017-10-12T11:42:01.497Z,76.60
2017-10-12T11:44:28.563Z,76.80
2017-10-12T11:46:55.230Z,76.80
2017-10-12T11:49:21.881Z,76.60
2017-10-12T11:51:48.550Z,76.60
2017-10-12T11:54:15.203Z,76.30
2017-10-12T11:56:42.242Z,76.80
2017-10-12T11:59:09.664Z,76.80
2017-10-12T12:01:36.307Z,76.70
2017-10-12T12:04:02.981Z,76.80
2017-10-12T12:06:29.623Z,76.70
2017-10-12T12:08:56.326Z,76.30
2017-10-12T12:11:22.939Z,76.40
2017-10-12T12:13:49.603Z,76.50
2017-10-12T12:16:16.882Z,76.30
2017-10-12T12:18:43.517Z,76.20
2017-10-12T12:21:10.788Z,76.30
2017-10-12T12:23:45.175Z,76.40
2017-10-12T12:26:11.823Z,76.10
2017-10-12T12:28:38.475Z,76.30
2017-10-12T12:31:05.123Z,75.80
2017-10-12T12:33:31.762Z,76.30
2017-10-12T12:36:00.562Z,76.10
2017-10-12T12:38:27.183Z,76.10
2017-10-12T12:40:53.852Z,76.10
2017-10-12T12:43:20.871Z,75.60
2017-10-12T12:45:47.498Z,75.60
2017-10-12T12:48:14.138Z,75.30
2017-10-12T12:50:40.754Z,75.30
2017-10-12T12:55:56.410Z,75.70
2017-10-12T12:58:23.058Z,75.30
2017-10-12T13:00:50.099Z,74.90
2017-10-12T13:03:16.740Z,75.00
2017-10-12T13:05:43.377Z,75.30
2017-10-12T13:08:10.040Z,75.20
2017-10-12T13:10:37.059Z,75.30
2017-10-12T13:13:03.711Z,75.30
2017-10-12T13:15:30.355Z,74.90
2017-10-12T13:17:56.987Z,75.00
2017-10-12T13:20:23.631Z,75.00
2017-10-12T13:22:50.264Z,75.00
2017-10-12T13:25:16.907Z,75.20
2017-10-12T13:27:43.547Z,75.00
2017-10-12T13:30:10.192Z,74.90
2017-10-12T13:32:36.823Z,74.80
2017-10-12T13:35:03.493Z,74.60
2017-10-12T13:37:30.515Z,74.60
2017-10-12T13:39:57.160Z,74.60
2017-10-12T13:42:24.223Z,74.50
2017-10-12T13:44:51.255Z,74.30
2017-10-12T13:47:17.903Z,74.20
2017-10-12T13:49:44.532Z,74.00
2017-10-12T13:52:11.171Z,74.10
2017-10-12T13:54:37.811Z,74.20
2017-10-12T13:57:04.485Z,74.10
2017-10-12T13:59:31.109Z,74.10
2017-10-12T14:01:58.139Z,74.30
2017-10-12T14:04:24.791Z,74.30
2017-10-12T14:06:51.411Z,73.90
2017-10-12T14:09:18.066Z,73.40
2017-10-12T14:11:44.688Z,73.50
2017-10-12T14:14:11.332Z,73.20
2017-10-12T14:16:37.988Z,73.10
2017-10-12T14:19:04.607Z,73.50
2017-10-12T14:21:31.251Z,73.70
2017-10-12T14:23:57.899Z,73.60
2017-10-12T14:26:24.543Z,73.60
2017-10-12T14:28:51.267Z,73.50
2017-10-12T14:31:17.923Z,73.50
2017-10-12T14:33:44.547Z,73.60
2017-10-12T14:36:11.224Z,74.00
2017-10-12T14:38:37.848Z,73.60
2017-10-12T14:41:04.475Z,73.60
2017-10-12T14:43:31.794Z,73.00
2017-10-12T14:45:58.412Z,73.70
2017-10-12T14:48:25.060Z,73.80
2017-10-12T14:50:51.684Z,73.30
2017-10-12T14:56:07.511Z,73.90
2017-10-12T14:58:34.155Z,73.40
2017-10-12T15:01:00.779Z,73.60
2017-10-12T15:03:27.443Z,73.60
2017-10-12T15:05:54.072Z,73.70
2017-10-12T15:08:20.699Z,73.70
2017-10-12T15:10:47.347Z,73.50
2017-10-12T15:13:13.972Z,73.40
2017-10-12T15:15:40.640Z,73.30
2017-10-12T15:18:07.271Z,73.40
2017-10-12T15:20:33.919Z,73.30
2017-10-12T15:23:00.544Z,73.10
2017-10-12T15:25:27.188Z,73.60
2017-10-12T15:27:53.818Z,73.40
2017-10-12T15:30:20.972Z,73.70
2017-10-12T15:32:47.593Z,73.70
2017-10-12T15:35:14.627Z,73.90
2017-10-12T15:37:41.276Z,73.70
2017-10-12T15:40:08.294Z,73.20
2017-10-12T15:42:34.944Z,73.30
2017-10-12T15:45:01.589Z,73.40
2017-10-12T15:47:28.235Z,73.40
2017-10-12T15:49:54.867Z,73.30
2017-10-12T15:52:21.511Z,73.30
2017-10-12T15:54:48.131Z,73.20
2017-10-12T15:57:14.779Z,73.30
2017-10-12T15:59:41.427Z,73.20
2017-10-12T16:02:08.082Z,73.50
2017-10-12T16:04:35.308Z,73.70
2017-10-12T16:07:02.652Z,73.60
2017-10-12T16:09:29.303Z,73.50
2017-10-12T16:11:55.928Z,73.30
2017-10-12T16:14:22.571Z,73.20
2017-10-12T16:16:49.195Z,73.20
2017-10-12T16:19:15.838Z,73.40
2017-10-12T16:21:42.471Z,73.00
2017-10-12T16:24:09.135Z,73.30
2017-10-12T16:26:35.763Z,73.30
2017-10-12T16:29:02.426Z,73.10
2017-10-12T16:31:29.071Z,73.40
2017-10-12T16:33:55.715Z,73.30
2017-10-12T16:36:22.403Z,73.40
2017-10-12T16:38:49.064Z,73.60
2017-10-12T16:41:15.723Z,73.50
2017-10-12T16:43:42.349Z,73.70
2017-10-12T16:46:09.014Z,73.40
2017-10-12T16:48:35.639Z,73.60
2017-10-12T16:51:02.268Z,73.80
2017-10-12T16:53:28.911Z,73.70
2017-10-12T16:55:55.531Z,73.70
2017-10-12T16:58:22.178Z,73.40
2017-10-12T17:00:48.807Z,73.80
2017-10-12T17:03:15.474Z,73.80
2017-10-12T17:05:42.107Z,74.00
2017-10-12T17:08:08.757Z,73.90
2017-10-12T17:10:35.419Z,73.80
2017-10-12T17:13:02.044Z,73.80
2017-10-12T17:15:30.588Z,74.20
2017-10-12T17:17:57.219Z,74.30
2017-10-12T17:20:23.860Z,73.90
2017-10-12T17:22:50.494Z,73.90
2017-10-12T17:25:17.143Z,74.10
2017-10-12T17:27:43.765Z,74.00
2017-10-12T17:30:10.791Z,73.80
2017-10-12T17:32:37.434Z,73.90
2017-10-12T17:35:04.104Z,74.10
2017-10-12T17:37:30.752Z,74.00
2017-10-12T17:39:57.375Z,74.20
2017-10-12T17:42:24.414Z,73.80
2017-10-12T17:44:51.034Z,74.10
2017-10-12T17:47:17.687Z,74.20
2017-10-12T17:49:44.515Z,74.00
2017-10-12T17:52:11.156Z,73.90
2017-10-12T17:54:37.923Z,74.10
2017-10-12T17:57:04.951Z,74.10
2017-10-12T17:59:31.604Z,74.10
2017-10-12T18:01:58.236Z,74.30
2017-10-12T18:06:53.823Z,74.00
2017-10-12T18:09:20.554Z,74.00
2017-10-12T18:14:13.903Z,73.90
2017-10-12T18:16:40.927Z,74.20
2017-10-12T18:19:07.546Z,74.20
2017-10-12T18:21:34.187Z,74.30
2017-10-12T18:24:00.807Z,74.30
2017-10-12T18:26:27.450Z,74.30
2017-10-12T18:28:54.075Z,74.10
2017-10-12T18:31:20.719Z,74.50
2017-10-12T18:33:47.339Z,74.10
2017-10-12T18:36:13.988Z,74.30
2017-10-12T18:38:40.627Z,74.20
2017-10-12T18:41:07.292Z,74.30
2017-10-12T18:43:33.915Z,74.30
2017-10-12T18:46:00.537Z,74.10
2017-10-12T18:48:27.579Z,74.20
2017-10-12T18:50:54.202Z,74.20
2017-10-12T18:56:09.599Z,74.00
2017-10-12T18:58:36.258Z,74.30
2017-10-12T19:01:03.311Z,74.60
2017-10-12T19:03:30.359Z,74.40
2017-10-12T19:05:56.979Z,74.10
2017-10-12T19:08:23.659Z,74.30
2017-10-12T19:10:50.288Z,74.30
2017-10-12T19:13:16.924Z,74.30
2017-10-12T19:15:43.574Z,74.50
2017-10-12T19:18:10.201Z,74.30
2017-10-12T19:20:36.846Z,74.00
2017-10-12T19:25:52.600Z,74.30
2017-10-12T19:30:45.929Z,74.30
2017-10-12T19:33:12.944Z,74.30
2017-10-12T19:38:06.644Z,74.60
2017-10-12T19:40:33.283Z,74.20
2017-10-12T19:42:59.932Z,74.30
2017-10-12T19:45:26.551Z,74.40
2017-10-12T19:47:54.043Z,74.30
2017-10-12T19:50:21.055Z,74.30
2017-10-12T19:52:48.272Z,74.40
2017-10-12T19:55:14.898Z,74.40
2017-10-12T19:57:41.548Z,74.30
2017-10-12T20:00:08.170Z,74.10
2017-10-12T20:02:35.236Z,74.20
2017-10-12T20:05:01.857Z,74.30
2017-10-12T20:07:28.875Z,74.20
2017-10-12T20:09:55.568Z,74.20
2017-10-12T20:12:22.196Z,74.40
2017-10-12T20:14:48.842Z,74.20
2017-10-12T20:17:15.463Z,74.20
2017-10-12T20:19:42.512Z,74.40
2017-10-12T20:22:09.535Z,74.20
2017-10-12T20:24:36.183Z,74.30
2017-10-12T20:27:03.201Z,74.30
2017-10-12T20:31:56.504Z,74.30
2017-10-12T20:34:23.136Z,74.10
2017-10-12T20:36:49.795Z,74.30
2017-10-12T20:39:16.817Z,74.30
2017-10-12T20:44:10.147Z,74.30
2017-10-12T20:46:36.791Z,74.30
2017-10-12T20:49:03.415Z,74.10
2017-10-12T20:51:30.060Z,74.30
2017-10-12T20:53:56.784Z,74.30
2017-10-12T20:56:23.439Z,74.30
2017-10-12T20:58:50.463Z,74.10
2017-10-12T21:01:17.088Z,74.10
2017-10-12T21:03:43.739Z,74.10
2017-10-12T21:06:10.385Z,74.10
2017-10-12T21:08:37.036Z,74.10
2017-10-12T21:11:04.076Z,74.10
2017-10-12T21:13:30.723Z,74.10
2017-10-12T21:15:57.344Z,74.10
2017-10-12T21:18:23.999Z,74.30
2017-10-12T21:20:50.623Z,74.20
2017-10-12T21:26:06.539Z,74.10
2017-10-12T21:28:33.180Z,74.10
2017-10-12T21:30:59.866Z,74.20
2017-10-12T21:33:26.742Z,74.10
2017-10-12T21:35:53.384Z,74.10
2017-10-12T21:38:20.012Z,74.30
2017-10-12T21:40:46.655Z,74.20
2017-10-12T21:43:13.276Z,74.10
2017-10-12T21:45:39.930Z,74.20
2017-10-12T21:48:06.558Z,74.20
2017-10-12T21:50:33.184Z,74.20
2017-10-12T21:53:00.272Z,74.20
2017-10-12T21:55:26.895Z,74.20
2017-10-12T21:57:53.539Z,74.10
2017-10-12T22:00:20.168Z,74.10
2017-10-12T22:02:46.815Z,74.20
2017-10-12T22:05:13.435Z,74.10
2017-10-12T22:07:40.084Z,74.20
2017-10-12T22:10:06.716Z,74.10
2017-10-12T22:12:33.351Z,74.10
2017-10-12T22:15:00.000Z,74.10
2017-10-12T22:17:26.626Z,74.10
2017-10-12T22:19:53.283Z,74.10
2017-10-12T22:22:19.906Z,74.10
2017-10-12T22:24:46.547Z,74.10
2017-10-12T22:27:13.189Z,74.30
2017-10-12T22:29:39.855Z,74.10
2017-10-12T22:32:06.478Z,74.10
2017-10-12T22:34:33.109Z,74.20
2017-10-12T22:36:59.756Z,74.20
2017-10-12T22:39:26.381Z,74.10
2017-10-12T22:41:53.028Z,74.10
2017-10-12T22:44:19.700Z,74.10
2017-10-12T22:46:46.363Z,74.10
2017-10-12T22:49:13.007Z,74.20
2017-10-12T22:51:39.638Z,74.00
2017-10-12T22:54:06.279Z,74.10
2017-10-12T22:56:32.927Z,74.10
2017-10-12T22:58:59.579Z,74.20
2017-10-12T23:01:26.203Z,74.10
2017-10-12T23:03:52.857Z,74.10
2017-10-12T23:06:19.474Z,74.10
2017-10-12T23:08:46.095Z,74.10
2017-10-12T23:11:12.747Z,74.10
2017-10-12T23:13:39.367Z,74.10
2017-10-12T23:16:06.013Z,74.00
2017-10-12T23:18:32.635Z,74.00
2017-10-12T23:20:59.296Z,74.00
2017-10-12T23:23:25.918Z,74.10
2017-10-12T23:25:52.546Z,74.10
2017-10-12T23:28:19.363Z,74.10
2017-10-12T23:30:46.383Z,74.10
2017-10-12T23:33:13.038Z,74.10
2017-10-12T23:35:39.679Z,74.10
2017-10-12T23:38:06.319Z,74.00
2017-10-12T23:40:32.946Z,74.10
2017-10-12T23:42:59.604Z,74.10
2017-10-12T23:45:26.222Z,74.10
2017-10-12T23:47:52.886Z,74.10
2017-10-12T23:50:19.520Z,74.20
2017-10-12T23:52:46.142Z,74.10
2017-10-12T23:55:12.792Z,74.10
2017-10-12T23:57:39.442Z,74.20
